PTKR  Koror, Palau, NWS Office  Airport

Federated States of Micronesia

Add Bookmark
Status
Operational
Latitude Longitude
7° 19' 48" N 134° 28' 47" E
7.330000 134.480000
Local (DST + 9) UTC (GMT + 9)
Mar 28, 2015 09:31 Mar 28, 2015 00:31
Sunrise-Sunset Local UTC
Begin Civil Twilight 05:40 20:40
Sunrise 06:01 21:01
Sunset 06:13 09:13
End Civil Twilight 06:34 09:34

Current Weather

METAR Observed VFR
PTKR 272350Z 06009KT 15SM FEW018 SCT300 30/24 A2993 Fri, Mar 27, 2015 @ 23:50 UTC
(41 Minutes ago)
Visual Flight Rules
Wind Visibility Clouds Conditions
060° at 9 knots (17 kph) 24000 meters
  • Few at 1,800' AGL
  • Scattered at 30,000' AGL
  • No significant weather
Temperatures Readings Precipitation
Current Temp 30°C (86°F)
Low Temp 26°C (79°F)
High Temp 30°C (86°F)
Dewpoint 24°C (75°F)
Heat Index 35°C (95°F)
Humidity 70%
Altimeter 29.93"Hg
Sea Level Pressure 1013.6mb
Field Elevation 98.43'
None Recorded

Additional weather within a 92.6km radius of PTKR

Map ICAO Location
PTRO 8.1km N (360°)

24 Hour Weather History

Loading
-

24 Hour Weather Graphs

Loading
-

CheckWX.com is intended as a tool to help pilots better visualize weather data. It is not intended as a substitute for an official weather briefing obtained from a Flight Service Station. CheckWX.com does not meet the FAA requirements for an official pre-flight weather briefing. Therefore, it's important that pilots still call and obtain an official FSS pre-flight weather briefing.